Terminal Aerodrome Forecast
Issued by NWS Boston, MA

Current Version | Previous Version | Text Only | Print | Product List | Glossary On
Versions: 1 2 3 4 5 6 7 8 9 10 11 12 13 14 15 16 17 18 19 20 21 22 23 24 25 26 27 28 29 30 31 32 33 34 35 36 37 38 39 40 41 42 43 44 45 46 47 48 49
000
FTUS41 KBOX 260536
TAFPVD
TAF
KPVD 260536Z 2606/2706 25005KT P6SM SCT120
     FM261100 36004KT 6SM -RA OVC080
     FM261500 02007KT 3SM -RA OVC015
     FM261900 03011G20KT 2SM RASNPL OVC010
     FM262100 03013G23KT 1SM RAPL OVC010
     FM270300 36015G27KT P6SM OVC008=

USA.gov is the U.S. government's official web portal to all federal, state and local government web resources and services.